KBYG/BYG METAR and TAF weather

Enter ICAO airport designator
Station Type Date Time Source
KBYG METAR 2020/09/19 04:53 UTC NOAA

KBYG 190453Z AUTO 26006KT 9SM CLR 18/M01 A3005 RMK AO2 SLP121 T01831006


Station Type Date Time Source
KBYG Decoded METAR 2020/09/19 04:53 UTC NOAA

BUFFALO JOHNSON COUNTY AIRPORT , WY, United States (KBYG) 44-23N 106-43W 1497M
Sep 19, 2020 - 12:53 AM EDT / 2020.09.19 0453 UTC
Wind: from the W (260 degrees) at 7 MPH (6 KT):0
Visibility: 9 mile(s):0
Sky conditions: clear
Temperature: 64.9 F (18.3 C)
Dew Point: 30.9 F (-0.6 C)
Relative Humidity: 27%
Pressure (altimeter): 30.05 in. Hg (1017 hPa)
ob: KBYG 190453Z AUTO 26006KT 9SM CLR 18/M01 A3005 RMK AO2 SLP121 T01831006
cycle: 5

Station Type Date Time Source
KBYG TAF UTC NOAA

Error!

Example: see airport list